createdAt,value
2017-05-03T00:01:07.647Z,938.88
2017-05-03T00:02:20.747Z,938.87
2017-05-03T00:03:33.545Z,938.87
2017-05-03T00:04:46.345Z,938.86
2017-05-03T00:05:59.148Z,938.86
2017-05-03T00:07:11.936Z,938.88
2017-05-03T00:08:24.733Z,938.88
2017-05-03T00:09:37.531Z,938.88
2017-05-03T00:10:50.333Z,938.87
2017-05-03T00:12:03.142Z,938.9
2017-05-03T00:13:15.463Z,938.89
2017-05-03T00:14:28.272Z,938.89
2017-05-03T00:15:40.591Z,938.87
2017-05-03T00:16:53.389Z,938.83
2017-05-03T00:18:06.441Z,938.86
2017-05-03T00:19:18.765Z,938.85
2017-05-03T00:20:31.091Z,938.85
2017-05-03T00:21:43.888Z,938.84
2017-05-03T00:22:56.687Z,938.8
2017-05-03T00:24:09.003Z,938.84
2017-05-03T00:25:21.809Z,938.8
2017-05-03T00:26:34.604Z,938.8
2017-05-03T00:27:47.411Z,938.8
2017-05-03T00:28:59.729Z,938.8
2017-05-03T00:30:12.061Z,938.81
2017-05-03T00:31:24.856Z,938.85
2017-05-03T00:32:37.658Z,938.8
2017-05-03T00:33:50.467Z,938.78
2017-05-03T00:35:03.525Z,938.8
2017-05-03T00:36:15.844Z,938.8
2017-05-03T00:37:28.642Z,938.81
2017-05-03T00:38:40.961Z,938.83
2017-05-03T00:39:53.761Z,938.81
2017-05-03T00:41:06.078Z,938.82
2017-05-03T00:42:18.877Z,938.81
2017-05-03T00:43:31.199Z,938.8
2017-05-03T00:44:44.006Z,938.8
2017-05-03T00:45:56.825Z,938.77
2017-05-03T00:47:08.651Z,938.79
2017-05-03T00:48:20.975Z,938.76
2017-05-03T00:49:33.786Z,938.79
2017-05-03T00:50:46.356Z,938.77
2017-05-03T00:51:59.155Z,938.78
2017-05-03T00:53:11.954Z,938.79
2017-05-03T00:54:24.283Z,938.82
2017-05-03T00:55:36.601Z,938.81
2017-05-03T00:56:49.647Z,938.79
2017-05-03T00:58:01.962Z,938.77
2017-05-03T00:59:14.290Z,938.79
2017-05-03T01:00:27.094Z,938.8
2017-05-03T01:01:39.893Z,938.79
2017-05-03T01:02:52.692Z,938.79
2017-05-03T01:04:05.006Z,938.83
2017-05-03T01:05:17.323Z,938.83
2017-05-03T01:06:30.129Z,938.82
2017-05-03T01:07:43.224Z,938.84
2017-05-03T01:08:56.029Z,938.85
2017-05-03T01:10:08.834Z,938.83
2017-05-03T01:11:21.148Z,938.82
2017-05-03T01:12:33.944Z,938.83
2017-05-03T01:13:46.264Z,938.85
2017-05-03T01:14:59.080Z,938.83
2017-05-03T01:16:11.886Z,938.86
2017-05-03T01:17:24.693Z,938.83
2017-05-03T01:18:37.496Z,938.81
2017-05-03T01:19:50.303Z,938.78
2017-05-03T01:21:02.621Z,938.8
2017-05-03T01:22:15.414Z,938.8
2017-05-03T01:23:28.464Z,938.81
2017-05-03T01:24:41.278Z,938.79
2017-05-03T01:25:54.082Z,938.78
2017-05-03T01:27:06.877Z,938.8
2017-05-03T01:28:19.674Z,938.76
2017-05-03T01:29:31.996Z,938.76
2017-05-03T01:30:44.796Z,938.81
2017-05-03T01:31:57.592Z,938.84
2017-05-03T01:33:10.390Z,938.85
2017-05-03T01:34:23.201Z,938.82
2017-05-03T01:35:36.008Z,938.82
2017-05-03T01:36:48.849Z,938.81
2017-05-03T01:38:01.653Z,938.78
2017-05-03T01:39:14.449Z,938.79
2017-05-03T01:40:27.251Z,938.83
2017-05-03T01:41:40.045Z,938.79
2017-05-03T01:42:52.844Z,938.81
2017-05-03T01:44:04.681Z,938.83
2017-05-03T01:45:17.317Z,938.8
2017-05-03T01:46:30.118Z,938.86
2017-05-03T01:47:42.436Z,938.81
2017-05-03T01:48:55.239Z,938.83
2017-05-03T01:50:08.043Z,938.83
2017-05-03T01:51:19.884Z,938.81
2017-05-03T01:52:32.696Z,938.83
2017-05-03T01:53:45.508Z,938.83
2017-05-03T01:54:58.309Z,938.83
2017-05-03T01:56:11.117Z,938.84
2017-05-03T01:57:23.935Z,938.88
2017-05-03T01:58:36.731Z,938.85
2017-05-03T01:59:49.526Z,938.87
2017-05-03T02:01:01.840Z,938.83
2017-05-03T02:02:14.902Z,938.88
2017-05-03T02:03:27.704Z,938.9
2017-05-03T02:04:40.515Z,938.88
2017-05-03T02:05:53.313Z,938.91
2017-05-03T02:07:06.122Z,938.88
2017-05-03T02:08:18.436Z,938.88
2017-05-03T02:09:30.752Z,938.87
2017-05-03T02:10:42.590Z,938.89
2017-05-03T02:11:55.398Z,938.87
2017-05-03T02:13:07.234Z,938.9
2017-05-03T02:14:20.049Z,938.87
2017-05-03T02:15:32.849Z,938.86
2017-05-03T02:16:45.652Z,938.89
2017-05-03T02:17:58.460Z,938.87
2017-05-03T02:19:10.794Z,938.88
2017-05-03T02:20:23.113Z,938.86
2017-05-03T02:21:35.912Z,938.89
2017-05-03T02:22:48.710Z,938.84
2017-05-03T02:25:28.389Z,938.79
2017-05-03T02:26:41.191Z,938.82
2017-05-03T02:27:53.515Z,938.76
2017-05-03T02:29:06.318Z,938.78
2017-05-03T02:30:19.120Z,938.79
2017-05-03T02:31:31.430Z,938.84
2017-05-03T02:32:44.229Z,938.82
2017-05-03T02:33:56.075Z,938.83
2017-05-03T02:35:08.645Z,938.82
2017-05-03T02:36:21.445Z,938.83
2017-05-03T02:37:34.249Z,938.83
2017-05-03T02:38:47.054Z,938.79
2017-05-03T02:41:26.748Z,938.76
2017-05-03T02:42:39.068Z,938.74
2017-05-03T02:43:51.879Z,938.76
2017-05-03T02:45:04.940Z,938.75
2017-05-03T02:46:17.254Z,938.73
2017-05-03T02:47:29.556Z,938.72
2017-05-03T02:48:42.351Z,938.7
2017-05-03T02:49:55.152Z,938.72
2017-05-03T02:51:07.469Z,938.75
2017-05-03T02:52:20.277Z,938.7
2017-05-03T02:53:33.077Z,938.71
2017-05-03T02:54:45.886Z,938.7
2017-05-03T02:55:58.692Z,938.71
2017-05-03T02:57:11.001Z,938.69
2017-05-03T02:58:23.323Z,938.67
2017-05-03T02:59:36.127Z,938.61
2017-05-03T03:00:48.915Z,938.63
2017-05-03T03:02:01.706Z,938.66
2017-05-03T03:03:14.015Z,938.61
2017-05-03T03:04:26.817Z,938.59
2017-05-03T03:05:39.608Z,938.63
2017-05-03T03:06:52.655Z,938.63
2017-05-03T03:08:05.451Z,938.6
2017-05-03T03:09:18.252Z,938.6
2017-05-03T03:10:31.056Z,938.6
2017-05-03T03:11:43.850Z,938.61
2017-05-03T03:12:56.473Z,938.62
2017-05-03T03:14:09.275Z,938.64
2017-05-03T03:15:21.590Z,938.64
2017-05-03T03:16:34.386Z,938.64
2017-05-03T03:17:47.175Z,938.6
2017-05-03T03:18:59.488Z,938.68
2017-05-03T03:20:11.800Z,938.61
2017-05-03T03:21:24.598Z,938.6
2017-05-03T03:22:36.906Z,938.63
2017-05-03T03:23:49.950Z,938.59
2017-05-03T03:25:02.268Z,938.6
2017-05-03T03:26:14.580Z,938.59
2017-05-03T03:27:26.894Z,938.56
2017-05-03T03:28:39.682Z,938.57
2017-05-03T03:29:52.486Z,938.56
2017-05-03T03:31:05.282Z,938.62
2017-05-03T03:32:18.068Z,938.62
2017-05-03T03:33:30.863Z,938.65
2017-05-03T03:34:43.658Z,938.63
2017-05-03T03:35:56.466Z,938.64
2017-05-03T03:37:09.263Z,938.62
2017-05-03T03:38:21.573Z,938.59
2017-05-03T03:39:34.670Z,938.6
2017-05-03T03:40:47.465Z,938.62
2017-05-03T03:41:59.300Z,938.58
2017-05-03T03:43:11.608Z,938.6
2017-05-03T03:44:23.924Z,938.59
2017-05-03T03:45:37.018Z,938.55
2017-05-03T03:46:49.324Z,938.53
2017-05-03T03:48:01.635Z,938.52
2017-05-03T03:49:14.420Z,938.5
2017-05-03T03:50:27.219Z,938.5
2017-05-03T03:51:40.012Z,938.47
2017-05-03T03:52:52.817Z,938.49
2017-05-03T03:54:05.133Z,938.46
2017-05-03T03:55:17.451Z,938.49
2017-05-03T03:56:30.547Z,938.48
2017-05-03T03:57:42.865Z,938.48
2017-05-03T03:58:55.658Z,938.49
2017-05-03T04:00:07.966Z,938.47
2017-05-03T04:01:21.063Z,938.48
2017-05-03T04:02:33.856Z,938.45
2017-05-03T04:03:46.655Z,938.43
2017-05-03T04:04:58.494Z,938.43
2017-05-03T04:06:11.281Z,938.35
2017-05-03T04:07:23.115Z,938.36
2017-05-03T04:08:35.909Z,938.38
2017-05-03T04:09:48.710Z,938.38
2017-05-03T04:11:01.514Z,938.34
2017-05-03T04:12:14.073Z,938.36
2017-05-03T04:13:26.386Z,938.33
2017-05-03T04:14:39.181Z,938.33
2017-05-03T04:15:51.528Z,938.37
2017-05-03T04:17:04.324Z,938.39
2017-05-03T04:18:17.373Z,938.35
2017-05-03T04:19:30.162Z,938.33
2017-05-03T04:20:42.948Z,938.33
2017-05-03T04:21:55.736Z,938.27
2017-05-03T04:23:08.535Z,938.26
2017-05-03T04:24:21.322Z,938.31
2017-05-03T04:25:33.629Z,938.26
2017-05-03T04:26:46.414Z,938.25
2017-05-03T04:27:59.196Z,938.24
2017-05-03T04:29:11.511Z,938.21
2017-05-03T04:30:24.296Z,938.22
2017-05-03T04:31:37.086Z,938.25
2017-05-03T04:32:49.397Z,938.26
2017-05-03T04:34:02.483Z,938.26
2017-05-03T04:35:14.306Z,938.26
2017-05-03T04:36:27.087Z,938.28
2017-05-03T04:37:39.881Z,938.25
2017-05-03T04:38:52.680Z,938.28
2017-05-03T04:40:05.280Z,938.24
2017-05-03T04:41:18.066Z,938.26
2017-05-03T04:42:30.848Z,938.3
2017-05-03T04:43:43.635Z,938.31
2017-05-03T04:44:56.414Z,938.31
2017-05-03T04:46:08.715Z,938.31
2017-05-03T04:47:21.027Z,938.29
2017-05-03T04:48:33.821Z,938.3
2017-05-03T04:49:46.609Z,938.27
2017-05-03T04:50:59.403Z,938.28
2017-05-03T04:52:11.707Z,938.24
2017-05-03T04:53:24.024Z,938.26
2017-05-03T04:54:36.819Z,938.31
2017-05-03T04:55:49.123Z,938.27
2017-05-03T04:57:01.917Z,938.25
2017-05-03T04:58:14.713Z,938.28
2017-05-03T04:59:27.040Z,938.3
2017-05-03T05:00:39.836Z,938.28
2017-05-03T05:01:52.626Z,938.29
2017-05-03T05:03:04.937Z,938.27
2017-05-03T05:04:17.259Z,938.26
2017-05-03T05:05:30.050Z,938.22
2017-05-03T05:06:42.883Z,938.23
2017-05-03T05:07:55.676Z,938.25
2017-05-03T05:09:07.986Z,938.28
2017-05-03T05:10:19.820Z,938.28
2017-05-03T05:11:32.608Z,938.26
2017-05-03T05:12:44.914Z,938.27
2017-05-03T05:13:57.230Z,938.29
2017-05-03T05:15:10.035Z,938.26
2017-05-03T05:16:22.348Z,938.25
2017-05-03T05:17:34.906Z,938.24
2017-05-03T05:18:47.741Z,938.24
2017-05-03T05:19:59.573Z,938.2
2017-05-03T05:21:11.885Z,938.19
2017-05-03T05:22:24.191Z,938.21
2017-05-03T05:23:51.049Z,938.17
2017-05-03T05:25:03.865Z,938.18
2017-05-03T05:26:16.656Z,938.13
2017-05-03T05:27:29.445Z,938.13
2017-05-03T05:28:42.239Z,938.11
2017-05-03T05:29:54.080Z,938.12
2017-05-03T05:31:06.881Z,938.1
2017-05-03T05:32:19.669Z,938.12
2017-05-03T05:33:31.979Z,938.12
2017-05-03T05:34:44.294Z,938.08
2017-05-03T05:35:56.612Z,938.11
2017-05-03T05:37:08.438Z,938.08
2017-05-03T05:38:21.230Z,938.08
2017-05-03T05:39:34.026Z,938.03
2017-05-03T05:40:46.818Z,938.02
2017-05-03T05:41:59.607Z,938
2017-05-03T05:43:11.910Z,937.94
2017-05-03T05:44:24.230Z,937.94
2017-05-03T05:45:37.031Z,937.94
2017-05-03T05:46:49.823Z,937.91
2017-05-03T05:48:02.124Z,937.92
2017-05-03T05:49:14.917Z,937.94
2017-05-03T05:50:27.716Z,937.91
2017-05-03T05:51:40.023Z,937.89
2017-05-03T05:52:52.808Z,937.89
2017-05-03T05:54:05.603Z,937.88
2017-05-03T05:55:17.914Z,937.84
2017-05-03T05:56:30.224Z,937.86
2017-05-03T05:57:43.016Z,937.85
2017-05-03T05:58:55.813Z,937.9
2017-05-03T06:00:08.135Z,937.87
2017-05-03T06:01:20.488Z,937.94
2017-05-03T06:02:33.287Z,937.89
2017-05-03T06:03:46.077Z,937.9
2017-05-03T06:04:58.876Z,937.91
2017-05-03T06:06:11.488Z,937.93
2017-05-03T06:07:23.797Z,937.86
2017-05-03T06:08:36.585Z,937.88
2017-05-03T06:09:49.382Z,937.85
2017-05-03T06:11:02.190Z,937.85
2017-05-03T06:12:14.318Z,937.84
2017-05-03T06:13:27.115Z,937.86
2017-05-03T06:14:39.916Z,937.84
2017-05-03T06:15:52.713Z,937.85
2017-05-03T06:17:05.809Z,937.87
2017-05-03T06:18:18.608Z,937.84
2017-05-03T06:19:31.402Z,937.83
2017-05-03T06:20:44.195Z,937.86
2017-05-03T06:21:56.992Z,937.87
2017-05-03T06:23:23.862Z,937.86
2017-05-03T06:24:36.649Z,937.93
2017-05-03T06:25:48.954Z,937.91
2017-05-03T06:27:00.781Z,937.92
2017-05-03T06:28:13.578Z,937.93
2017-05-03T06:29:25.893Z,937.9
2017-05-03T06:30:38.691Z,937.89
2017-05-03T06:31:51.485Z,937.88
2017-05-03T06:33:04.586Z,937.88
2017-05-03T06:34:16.895Z,937.85
2017-05-03T06:35:29.205Z,937.82
2017-05-03T06:36:41.514Z,937.78
2017-05-03T06:37:54.316Z,937.83
2017-05-03T06:39:07.351Z,937.84
2017-05-03T06:40:20.151Z,937.84
2017-05-03T06:41:32.492Z,937.8
2017-05-03T06:42:44.319Z,937.77
2017-05-03T06:43:56.637Z,937.79
2017-05-03T06:45:09.431Z,937.74
2017-05-03T06:46:22.225Z,937.74
2017-05-03T06:47:34.537Z,937.72
2017-05-03T06:48:46.853Z,937.74
2017-05-03T06:49:59.180Z,937.75
2017-05-03T06:51:11.494Z,937.79
2017-05-03T06:52:24.288Z,937.78
2017-05-03T06:53:36.582Z,937.77
2017-05-03T06:54:49.371Z,937.76
2017-05-03T06:56:02.153Z,937.73
2017-05-03T06:57:14.463Z,937.72
2017-05-03T06:58:27.244Z,937.68
2017-05-03T06:59:40.038Z,937.63
2017-05-03T07:00:52.336Z,937.64
2017-05-03T07:02:05.129Z,937.61
2017-05-03T07:03:17.428Z,937.66
2017-05-03T07:04:29.727Z,937.63
2017-05-03T07:05:42.509Z,937.7
2017-05-03T07:06:55.291Z,937.66
2017-05-03T07:08:08.073Z,937.65
2017-05-03T07:09:19.890Z,937.61
2017-05-03T07:10:32.668Z,937.66
2017-05-03T07:11:45.443Z,937.62
2017-05-03T07:12:58.222Z,937.65
2017-05-03T07:14:11.005Z,937.63
2017-05-03T07:15:23.791Z,937.67
2017-05-03T07:16:36.870Z,937.64
2017-05-03T07:17:49.691Z,937.66
2017-05-03T07:19:02.477Z,937.69
2017-05-03T07:20:14.786Z,937.69
2017-05-03T07:21:27.089Z,937.7
2017-05-03T07:22:39.420Z,937.73
2017-05-03T07:23:52.200Z,937.74
2017-05-03T07:25:04.978Z,937.73
2017-05-03T07:26:17.276Z,937.76
2017-05-03T07:27:30.057Z,937.77
2017-05-03T07:28:42.363Z,937.78
2017-05-03T07:29:55.151Z,937.76
2017-05-03T07:31:07.931Z,937.74
2017-05-03T07:32:19.747Z,937.75
2017-05-03T07:33:31.870Z,937.78
2017-05-03T07:34:44.650Z,937.79
2017-05-03T07:35:57.432Z,937.77
2017-05-03T07:37:10.209Z,937.76
2017-05-03T07:38:22.811Z,937.76
2017-05-03T07:39:35.594Z,937.68
2017-05-03T07:40:47.893Z,937.68
2017-05-03T07:42:00.670Z,937.67
2017-05-03T07:43:12.966Z,937.73
2017-05-03T07:44:25.750Z,937.69
2017-05-03T07:45:38.531Z,937.66
2017-05-03T07:46:51.313Z,937.67
2017-05-03T07:48:04.095Z,937.69
2017-05-03T07:49:16.394Z,937.68
2017-05-03T07:50:28.696Z,937.68
2017-05-03T07:51:41.513Z,937.66
2017-05-03T07:52:54.295Z,937.65
2017-05-03T07:54:06.602Z,937.65
2017-05-03T07:55:18.718Z,937.65
2017-05-03T07:56:31.506Z,937.64
2017-05-03T07:57:44.286Z,937.66
2017-05-03T07:58:57.067Z,937.68
2017-05-03T08:00:09.669Z,937.7
2017-05-03T08:01:22.450Z,937.72
2017-05-03T08:02:34.750Z,937.74
2017-05-03T08:03:47.530Z,937.74
2017-05-03T08:05:00.307Z,937.77
2017-05-03T08:06:12.612Z,937.76
2017-05-03T08:07:24.915Z,937.76
2017-05-03T08:08:37.700Z,937.8
2017-05-03T08:09:50.006Z,937.78
2017-05-03T08:11:02.321Z,937.78
2017-05-03T08:12:14.621Z,937.77
2017-05-03T08:13:27.405Z,937.79
2017-05-03T08:14:39.228Z,937.84
2017-05-03T08:15:52.014Z,937.81
2017-05-03T08:17:05.101Z,937.85
2017-05-03T08:18:17.886Z,937.9
2017-05-03T08:19:30.192Z,937.9
2017-05-03T08:20:42.974Z,937.94
2017-05-03T08:21:56.059Z,937.97
2017-05-03T08:23:08.365Z,937.97
2017-05-03T08:24:20.701Z,937.98
2017-05-03T08:25:32.576Z,938.03
2017-05-03T08:26:45.368Z,938.04
2017-05-03T08:27:58.154Z,938.03
2017-05-03T08:29:10.466Z,938.06
2017-05-03T08:30:23.255Z,938.08
2017-05-03T08:31:35.572Z,938.07
2017-05-03T08:32:47.884Z,938.11
2017-05-03T08:34:00.680Z,938.09
2017-05-03T08:35:12.514Z,938.13
2017-05-03T08:36:24.831Z,938.15
2017-05-03T08:37:37.642Z,938.12
2017-05-03T08:38:50.434Z,938.17
2017-05-03T08:40:03.232Z,938.18
2017-05-03T08:41:15.543Z,938.21
2017-05-03T08:42:28.345Z,938.23
2017-05-03T08:43:40.905Z,938.23
2017-05-03T08:44:53.217Z,938.28
2017-05-03T08:46:05.526Z,938.3
2017-05-03T08:47:17.356Z,938.32
2017-05-03T08:48:29.663Z,938.33
2017-05-03T08:49:42.758Z,938.37
2017-05-03T08:50:55.557Z,938.4
2017-05-03T08:52:08.357Z,938.37
2017-05-03T08:53:20.672Z,938.42
2017-05-03T08:54:33.470Z,938.39
2017-05-03T08:55:45.788Z,938.47
2017-05-03T08:56:58.581Z,938.48
2017-05-03T08:58:10.893Z,938.52
2017-05-03T08:59:23.689Z,938.52
2017-05-03T09:00:35.999Z,938.59
2017-05-03T09:01:48.792Z,938.62
2017-05-03T09:03:01.588Z,938.63
2017-05-03T09:04:14.391Z,938.68
2017-05-03T09:05:27.435Z,938.69
2017-05-03T09:06:40.215Z,938.68
2017-05-03T09:07:52.992Z,938.7
2017-05-03T09:09:04.824Z,938.73
2017-05-03T09:10:17.128Z,938.74
2017-05-03T09:11:29.435Z,938.79
2017-05-03T09:12:42.227Z,938.78
2017-05-03T09:13:55.018Z,938.79
2017-05-03T09:15:07.801Z,938.82
2017-05-03T09:16:20.579Z,938.83
2017-05-03T09:17:33.389Z,938.86
2017-05-03T09:18:45.707Z,938.86
2017-05-03T09:19:58.487Z,938.87
2017-05-03T09:21:11.274Z,938.95
2017-05-03T09:22:23.579Z,938.92
2017-05-03T09:23:36.372Z,938.95
2017-05-03T09:24:49.163Z,938.96
2017-05-03T09:26:01.952Z,938.96
2017-05-03T09:27:14.747Z,938.97
2017-05-03T09:28:27.534Z,938.98
2017-05-03T09:29:40.323Z,939
2017-05-03T09:30:52.632Z,938.96
2017-05-03T09:32:05.415Z,938.96
2017-05-03T09:33:18.212Z,938.96
2017-05-03T09:34:30.519Z,938.93
2017-05-03T09:35:43.302Z,938.95
2017-05-03T09:36:56.095Z,938.98
2017-05-03T09:38:07.920Z,938.99
2017-05-03T09:39:20.232Z,938.98
2017-05-03T09:40:33.015Z,939
2017-05-03T09:41:45.324Z,939
2017-05-03T09:42:58.119Z,939.03
2017-05-03T09:44:10.731Z,939.04
2017-05-03T09:45:23.515Z,939.06
2017-05-03T09:46:36.305Z,939.05
2017-05-03T09:47:49.090Z,939.07
2017-05-03T09:49:01.404Z,939.06
2017-05-03T09:50:14.202Z,939.05
2017-05-03T09:51:26.509Z,939.11
2017-05-03T09:52:37.853Z,939.1
2017-05-03T09:53:50.160Z,939.11
2017-05-03T09:55:02.948Z,939.1
2017-05-03T09:56:15.249Z,939.12
2017-05-03T09:57:28.028Z,939.16
2017-05-03T09:58:40.331Z,939.15
2017-05-03T09:59:53.116Z,939.21
2017-05-03T10:01:05.917Z,939.21
2017-05-03T10:02:18.215Z,939.19
2017-05-03T10:03:30.515Z,939.17
2017-05-03T10:04:42.819Z,939.19
2017-05-03T10:05:55.857Z,939.21
2017-05-03T10:07:08.643Z,939.19
2017-05-03T10:08:21.424Z,939.18
2017-05-03T10:09:34.248Z,939.23
2017-05-03T10:10:46.546Z,939.23
2017-05-03T10:11:59.327Z,939.26
2017-05-03T10:13:12.107Z,939.26
2017-05-03T10:14:24.892Z,939.3
2017-05-03T10:15:37.673Z,939.31
2017-05-03T10:16:50.263Z,939.31
2017-05-03T10:18:03.086Z,939.33
2017-05-03T10:19:15.385Z,939.33
2017-05-03T10:20:27.685Z,939.29
2017-05-03T10:21:39.983Z,939.31
2017-05-03T10:22:53.013Z,939.29
2017-05-03T10:24:05.795Z,939.28
2017-05-03T10:25:18.106Z,939.3
2017-05-03T10:26:30.401Z,939.32
2017-05-03T10:27:42.213Z,939.34
2017-05-03T10:28:54.996Z,939.4
2017-05-03T10:30:06.834Z,939.41
2017-05-03T10:31:18.650Z,939.45
2017-05-03T10:32:31.437Z,939.49
2017-05-03T10:33:43.730Z,939.47
2017-05-03T10:34:56.035Z,939.52
2017-05-03T10:36:08.335Z,939.52
2017-05-03T10:37:21.113Z,939.54
2017-05-03T10:38:33.713Z,939.51
2017-05-03T10:39:46.503Z,939.56
2017-05-03T10:40:58.800Z,939.52
2017-05-03T10:42:11.582Z,939.53
2017-05-03T10:43:23.875Z,939.52
2017-05-03T10:44:36.663Z,939.57
2017-05-03T10:45:49.438Z,939.62
2017-05-03T10:47:02.214Z,939.6
2017-05-03T10:48:14.030Z,939.73
2017-05-03T10:49:26.810Z,939.75
2017-05-03T10:50:39.104Z,939.76
2017-05-03T10:51:51.884Z,939.79
2017-05-03T10:53:04.661Z,939.74
2017-05-03T10:54:17.441Z,939.78
2017-05-03T10:55:29.254Z,939.81
2017-05-03T10:56:42.032Z,939.82
2017-05-03T10:57:54.809Z,939.89
2017-05-03T10:59:07.593Z,939.88
2017-05-03T11:00:20.619Z,939.87
2017-05-03T11:01:33.402Z,939.89
2017-05-03T11:02:46.184Z,939.89
2017-05-03T11:03:58.961Z,939.89
2017-05-03T11:05:10.779Z,939.91
2017-05-03T11:06:23.073Z,939.93
2017-05-03T11:07:35.852Z,939.94
2017-05-03T11:08:48.182Z,939.98
2017-05-03T11:10:00.959Z,939.97
2017-05-03T11:11:13.263Z,939.96
2017-05-03T11:12:26.040Z,939.94
2017-05-03T11:13:38.340Z,939.96
2017-05-03T11:14:51.119Z,939.99
2017-05-03T11:16:03.426Z,940
2017-05-03T11:17:16.204Z,939.95
2017-05-03T11:18:28.985Z,939.94
2017-05-03T11:19:41.283Z,939.92
2017-05-03T11:20:54.065Z,939.98
2017-05-03T11:22:06.850Z,939.95
2017-05-03T11:23:19.147Z,939.95
2017-05-03T11:24:31.932Z,939.97
2017-05-03T11:25:44.227Z,939.97
2017-05-03T11:26:57.004Z,939.99
2017-05-03T11:28:09.781Z,940.02
2017-05-03T11:29:22.078Z,940.04
2017-05-03T11:30:34.380Z,940.04
2017-05-03T11:31:46.677Z,940.05
2017-05-03T11:32:59.452Z,940.06
2017-05-03T11:34:11.746Z,940.07
2017-05-03T11:35:24.044Z,940.07
2017-05-03T11:36:35.859Z,940.12
2017-05-03T11:37:48.639Z,940.11
2017-05-03T11:39:01.419Z,940.12
2017-05-03T11:40:13.718Z,940.15
2017-05-03T11:41:26.498Z,940.16
2017-05-03T11:42:38.312Z,940.16
2017-05-03T11:43:50.619Z,940.16
2017-05-03T11:45:03.398Z,940.24
2017-05-03T11:46:15.703Z,940.22
2017-05-03T11:47:28.490Z,940.19
2017-05-03T11:48:41.267Z,940.2
2017-05-03T11:49:53.813Z,940.22
2017-05-03T11:51:06.592Z,940.2
2017-05-03T11:52:18.407Z,940.19
2017-05-03T11:53:31.186Z,940.2
2017-05-03T11:54:44.223Z,940.22
2017-05-03T11:55:57.002Z,940.26
2017-05-03T11:57:09.801Z,940.24
2017-05-03T11:58:22.105Z,940.21
2017-05-03T11:59:34.889Z,940.25
2017-05-03T12:00:47.670Z,940.2
2017-05-03T12:02:00.447Z,940.21
2017-05-03T12:03:13.226Z,940.21
2017-05-03T12:04:26.007Z,940.25
2017-05-03T12:05:39.038Z,940.25
2017-05-03T12:06:51.336Z,940.3
2017-05-03T12:08:04.137Z,940.32
2017-05-03T12:09:16.927Z,940.33
2017-05-03T12:10:29.711Z,940.34
2017-05-03T12:11:42.271Z,940.34
2017-05-03T12:12:54.587Z,940.4
2017-05-03T12:14:07.377Z,940.38
2017-05-03T12:15:19.201Z,940.36
2017-05-03T12:16:32.236Z,940.35
2017-05-03T12:17:45.016Z,940.36
2017-05-03T12:18:57.325Z,940.34
2017-05-03T12:20:09.635Z,940.37
2017-05-03T12:21:22.425Z,940.32
2017-05-03T12:22:35.214Z,940.33
2017-05-03T12:23:47.528Z,940.32
2017-05-03T12:25:00.337Z,940.3
2017-05-03T12:26:12.642Z,940.29
2017-05-03T12:27:25.208Z,940.28
2017-05-03T12:28:38.006Z,940.33
2017-05-03T12:29:50.323Z,940.32
2017-05-03T12:31:03.115Z,940.33
2017-05-03T12:32:15.908Z,940.33
2017-05-03T12:33:28.962Z,940.34
2017-05-03T12:34:41.755Z,940.34
2017-05-03T12:35:54.547Z,940.37
2017-05-03T12:37:07.340Z,940.38
2017-05-03T12:38:20.329Z,940.35
2017-05-03T12:39:33.026Z,940.35
2017-05-03T12:40:45.818Z,940.36
2017-05-03T12:41:58.613Z,940.34
2017-05-03T12:43:11.412Z,940.32
2017-05-03T12:44:23.526Z,940.33
2017-05-03T12:45:36.320Z,940.29
2017-05-03T12:46:49.114Z,940.26
2017-05-03T12:48:01.428Z,940.25
2017-05-03T12:49:14.222Z,940.25
2017-05-03T12:50:27.015Z,940.25
2017-05-03T12:51:39.820Z,940.24
2017-05-03T12:52:52.635Z,940.25
2017-05-03T12:54:04.458Z,940.26
2017-05-03T12:55:17.248Z,940.26
2017-05-03T12:56:30.034Z,940.22
2017-05-03T12:57:42.977Z,940.27
2017-05-03T12:58:55.288Z,940.25
2017-05-03T13:00:08.083Z,940.2
2017-05-03T13:01:19.912Z,940.12
2017-05-03T13:02:33.021Z,940.06
2017-05-03T13:03:45.812Z,940.03
2017-05-03T13:04:58.601Z,940.01
2017-05-03T13:06:10.907Z,940.02
2017-05-03T13:07:23.216Z,939.96
2017-05-03T13:08:36.002Z,939.95
2017-05-03T13:09:48.308Z,939.9
2017-05-03T13:10:59.653Z,939.91
2017-05-03T13:12:12.440Z,939.81
2017-05-03T13:13:24.747Z,939.77
2017-05-03T13:14:37.534Z,939.76
2017-05-03T13:15:49.836Z,939.78
2017-05-03T13:17:02.152Z,939.79
2017-05-03T13:18:13.971Z,939.8
2017-05-03T13:19:27.068Z,939.76
2017-05-03T13:20:53.933Z,939.81
2017-05-03T13:22:06.724Z,939.81
2017-05-03T13:23:18.547Z,939.81
2017-05-03T13:24:31.587Z,939.84
2017-05-03T13:25:44.383Z,939.86
2017-05-03T13:26:57.179Z,939.85
2017-05-03T13:28:09.980Z,939.82
2017-05-03T13:29:22.768Z,939.8
2017-05-03T13:30:34.596Z,939.79
2017-05-03T13:31:47.382Z,939.73
2017-05-03T13:32:59.699Z,939.74
2017-05-03T13:34:11.531Z,939.75
2017-05-03T13:35:24.628Z,939.74
2017-05-03T13:36:37.426Z,939.76
2017-05-03T13:37:50.211Z,939.71
2017-05-03T13:39:03.002Z,939.71
2017-05-03T13:40:15.791Z,939.7
2017-05-03T13:41:28.393Z,939.63
2017-05-03T13:42:41.184Z,939.59
2017-05-03T13:43:53.492Z,939.52
2017-05-03T13:45:05.797Z,939.53
2017-05-03T13:46:18.351Z,939.48
2017-05-03T13:47:31.135Z,939.49
2017-05-03T13:48:43.940Z,939.47
2017-05-03T13:49:56.727Z,939.46
2017-05-03T13:51:09.512Z,939.4
2017-05-03T13:52:22.550Z,939.39
2017-05-03T13:53:34.855Z,939.32
2017-05-03T13:54:47.645Z,939.33
2017-05-03T13:56:00.431Z,939.34
2017-05-03T13:57:13.525Z,939.36
2017-05-03T13:58:26.307Z,939.34
2017-05-03T13:59:39.097Z,939.35
2017-05-03T14:00:51.882Z,939.33
2017-05-03T14:02:04.190Z,939.31
2017-05-03T14:03:16.494Z,939.32
2017-05-03T14:04:28.799Z,939.26
2017-05-03T14:05:41.581Z,939.17
2017-05-03T14:06:54.367Z,939.19
2017-05-03T14:08:07.405Z,939.14
2017-05-03T14:09:19.230Z,939.14
2017-05-03T14:10:32.030Z,939.07
2017-05-03T14:11:44.813Z,939.04
2017-05-03T14:12:57.812Z,939
2017-05-03T14:14:10.858Z,938.95
2017-05-03T14:15:23.652Z,938.93
2017-05-03T14:16:35.967Z,938.94
2017-05-03T14:17:48.758Z,938.93
2017-05-03T14:19:01.313Z,938.93
2017-05-03T14:20:14.122Z,938.87
2017-05-03T14:21:25.953Z,938.84
2017-05-03T14:22:38.749Z,938.83
2017-05-03T14:23:51.553Z,938.79
2017-05-03T14:25:04.605Z,938.76
2017-05-03T14:26:17.404Z,938.7
2017-05-03T14:27:29.721Z,938.65
2017-05-03T14:28:42.041Z,938.61
2017-05-03T14:29:54.841Z,938.55
2017-05-03T14:31:07.640Z,938.53
2017-05-03T14:32:19.959Z,938.49
2017-05-03T14:33:32.772Z,938.44
2017-05-03T14:34:45.580Z,938.46
2017-05-03T14:35:58.403Z,938.43
2017-05-03T14:37:10.725Z,938.42
2017-05-03T14:38:23.530Z,938.43
2017-05-03T14:39:35.869Z,938.38
2017-05-03T14:40:47.707Z,938.42
2017-05-03T14:42:00.516Z,938.44
2017-05-03T14:43:12.832Z,938.44
2017-05-03T14:44:25.150Z,938.38
2017-05-03T14:45:37.947Z,938.42
2017-05-03T14:46:51.005Z,938.43
2017-05-03T14:48:03.815Z,938.4
2017-05-03T14:49:16.135Z,938.42
2017-05-03T14:50:28.463Z,938.41
2017-05-03T14:51:40.779Z,938.4
2017-05-03T14:52:53.096Z,938.32
2017-05-03T14:54:05.415Z,938.31
2017-05-03T14:55:18.231Z,938.3
2017-05-03T14:56:31.029Z,938.27
2017-05-03T14:57:57.901Z,938.29
2017-05-03T14:59:10.221Z,938.28
2017-05-03T15:00:22.536Z,938.2
2017-05-03T15:01:34.849Z,938.21
2017-05-03T15:02:46.450Z,938.17
2017-05-03T15:03:58.770Z,938.15
2017-05-03T15:05:11.106Z,938.12
2017-05-03T15:06:23.907Z,938.07
2017-05-03T15:07:36.224Z,938.08
2017-05-03T15:08:49.027Z,938.02
2017-05-03T15:10:01.342Z,937.99
2017-05-03T15:11:13.659Z,937.96
2017-05-03T15:12:26.457Z,937.98
2017-05-03T15:13:38.927Z,938.01